createdAt,value
2017-04-24T00:00:02.994Z,0
2017-04-24T00:05:02.839Z,0
2017-04-24T00:10:03.529Z,0
2017-04-24T00:15:03.233Z,0
2017-04-24T00:20:02.797Z,0
2017-04-24T00:25:03.404Z,0
2017-04-24T00:30:03.142Z,0
2017-04-24T00:35:02.699Z,0
2017-04-24T00:40:03.421Z,0
2017-04-24T00:45:02.975Z,0
2017-04-24T00:50:02.692Z,0
2017-04-24T00:55:03.462Z,0
2017-04-24T01:00:03.102Z,0
2017-04-24T01:05:02.722Z,0
2017-04-24T01:10:03.356Z,0
2017-04-24T01:15:02.959Z,0
2017-04-24T01:20:02.721Z,0
2017-04-24T01:25:03.245Z,0
2017-04-24T01:30:02.955Z,0
2017-04-24T01:35:02.678Z,0
2017-04-24T01:40:03.287Z,0
2017-04-24T01:45:02.904Z,0
2017-04-24T01:50:03.623Z,0
2017-04-24T01:55:03.210Z,0
2017-04-24T02:00:02.826Z,0
2017-04-24T02:05:03.426Z,0
2017-04-24T02:10:03.192Z,0
2017-04-24T02:15:02.861Z,0
2017-04-24T02:20:02.598Z,2
2017-04-24T02:25:03.243Z,2
2017-04-24T02:30:02.839Z,0
2017-04-24T02:35:03.551Z,0
2017-04-24T02:40:03.218Z,0
2017-04-24T02:45:02.829Z,0
2017-04-24T02:50:03.628Z,0
2017-04-24T02:55:03.233Z,2
2017-04-24T03:00:03.092Z,0
2017-04-24T03:05:02.715Z,0
2017-04-24T03:10:03.459Z,0
2017-04-24T03:15:03.237Z,2
2017-04-24T03:20:02.848Z,1
2017-04-24T03:25:03.526Z,2
2017-04-24T03:30:03.165Z,1
2017-04-24T03:35:02.837Z,1
2017-04-24T03:40:03.452Z,1
2017-04-24T03:45:03.034Z,0
2017-04-24T03:50:02.676Z,0
2017-04-24T03:55:03.247Z,2
2017-04-24T04:00:03.145Z,2
2017-04-24T04:05:02.850Z,2
2017-04-24T04:10:03.595Z,2
2017-04-24T04:15:03.278Z,0
2017-04-24T04:20:02.966Z,3
2017-04-24T04:25:02.737Z,0
2017-04-24T04:30:02.722Z,1
2017-04-24T04:35:03.390Z,2
2017-04-24T04:40:03.513Z,0
2017-04-24T04:45:03.149Z,0
2017-04-24T04:50:02.767Z,0
2017-04-24T04:55:03.346Z,2
2017-04-24T05:00:03.113Z,2
2017-04-24T05:05:02.700Z,2
2017-04-24T05:10:03.432Z,3
2017-04-24T05:15:03.263Z,2
2017-04-24T05:20:03.010Z,3
2017-04-24T05:25:02.742Z,2
2017-04-24T05:30:03.381Z,2
2017-04-24T05:35:02.986Z,2
2017-04-24T05:40:02.742Z,2
2017-04-24T05:45:03.350Z,4
2017-04-24T05:50:02.919Z,3
2017-04-24T05:55:02.643Z,4
2017-04-24T06:00:03.413Z,3
2017-04-24T06:05:03.089Z,3
2017-04-24T06:10:02.770Z,3
2017-04-24T06:15:03.395Z,3
2017-04-24T06:20:03.081Z,3
2017-04-24T06:25:02.673Z,7
2017-04-24T06:30:03.395Z,6
2017-04-24T06:35:02.969Z,4
2017-04-24T06:40:02.651Z,3
2017-04-24T06:45:03.311Z,7
2017-04-24T06:50:03.012Z,5
2017-04-24T06:55:02.647Z,4
2017-04-24T07:00:03.388Z,6
2017-04-24T07:05:03.018Z,4
2017-04-24T07:10:02.673Z,5
2017-04-24T07:15:03.447Z,7
2017-04-24T07:20:03.137Z,5
2017-04-24T07:25:02.716Z,8
2017-04-24T07:30:03.337Z,7
2017-04-24T07:35:02.985Z,6
2017-04-24T07:40:02.698Z,7
2017-04-24T07:45:03.491Z,8
2017-04-24T07:50:03.183Z,5
2017-04-24T07:55:02.995Z,6
2017-04-24T08:00:02.693Z,3
2017-04-24T08:05:03.393Z,8
2017-04-24T08:10:03.144Z,7
2017-04-24T08:15:02.870Z,13
2017-04-24T08:20:03.471Z,6
2017-04-24T08:25:03.388Z,5
2017-04-24T08:30:03.038Z,9
2017-04-24T08:35:02.835Z,5
2017-04-24T08:40:02.663Z,7
2017-04-24T08:45:03.275Z,7
2017-04-24T08:50:02.906Z,5
2017-04-24T08:55:03.448Z,3
2017-04-24T09:00:03.321Z,11
2017-04-24T09:05:02.866Z,8
2017-04-24T09:10:02.966Z,7
2017-04-24T09:15:02.624Z,10
2017-04-24T09:20:03.300Z,7
2017-04-24T09:25:02.897Z,10
2017-04-24T09:30:02.704Z,9
2017-04-24T09:35:03.236Z,9
2017-04-24T09:40:02.918Z,8
2017-04-24T09:45:03.581Z,6
2017-04-24T09:50:03.292Z,5
2017-04-24T09:55:02.903Z,3
2017-04-24T10:00:02.705Z,8
2017-04-24T10:05:03.414Z,6
2017-04-24T10:10:03.028Z,9
2017-04-24T10:15:02.784Z,4
2017-04-24T10:20:03.399Z,9
2017-04-24T10:25:03.101Z,6
2017-04-24T10:30:02.680Z,6
2017-04-24T10:35:03.560Z,9
2017-04-24T10:40:02.652Z,2
2017-04-24T10:45:03.818Z,11
2017-04-24T10:50:03.522Z,6
2017-04-24T10:55:03.041Z,8
2017-04-24T11:00:03.322Z,7
2017-04-24T11:05:03.413Z,5
2017-04-24T11:10:03.370Z,6
2017-04-24T11:15:03.507Z,5
2017-04-24T11:20:03.067Z,4
2017-04-24T11:25:03.019Z,8
2017-04-24T11:30:03.525Z,9
2017-04-24T11:35:02.931Z,5
2017-04-24T11:40:02.950Z,5
2017-04-24T11:45:03.389Z,7
2017-04-24T11:50:02.838Z,6
2017-04-24T11:55:03.590Z,5
2017-04-24T12:00:02.942Z,7
2017-04-24T12:05:02.839Z,7
2017-04-24T12:10:03.403Z,6
2017-04-24T12:15:02.916Z,8
2017-04-24T12:20:03.337Z,9
2017-04-24T12:25:02.780Z,8
2017-04-24T12:30:02.974Z,7
2017-04-24T12:35:02.994Z,6
2017-04-24T12:40:03.598Z,7
2017-04-24T12:45:02.901Z,10
2017-04-24T12:50:03.381Z,9
2017-04-24T12:55:02.966Z,9
2017-04-24T13:00:02.637Z,9
2017-04-24T13:05:02.781Z,8
2017-04-24T13:10:03.324Z,10
2017-04-24T13:15:02.965Z,5
2017-04-24T13:20:03.498Z,11
2017-04-24T13:25:02.815Z,7
2017-04-24T13:30:03.284Z,8
2017-04-24T13:35:02.621Z,7
2017-04-24T13:40:03.191Z,9
2017-04-24T13:45:02.761Z,6
2017-04-24T13:50:03.364Z,7
2017-04-24T13:55:02.880Z,7
2017-04-24T14:00:03.510Z,5
2017-04-24T14:05:02.695Z,8
2017-04-24T14:10:03.168Z,6
2017-04-24T14:15:02.665Z,7
2017-04-24T14:20:03.196Z,5
2017-04-24T14:25:02.852Z,10
2017-04-24T14:30:03.203Z,7
2017-04-24T14:35:02.759Z,9
2017-04-24T14:40:03.100Z,6
2017-04-24T14:45:02.682Z,7
2017-04-24T14:50:03.142Z,5
2017-04-24T14:55:02.754Z,6
2017-04-24T15:00:03.218Z,8
2017-04-24T15:05:02.768Z,3
2017-04-24T15:10:03.557Z,5
2017-04-24T15:15:03.146Z,7
2017-04-24T15:20:03.583Z,6
2017-04-24T15:25:03.075Z,3
2017-04-24T15:30:03.443Z,4
2017-04-24T15:35:02.841Z,4
2017-04-24T15:40:03.425Z,6
2017-04-24T15:45:02.804Z,4
2017-04-24T15:50:03.371Z,7
2017-04-24T15:55:02.996Z,6
2017-04-24T16:00:03.559Z,5
2017-04-24T16:05:02.950Z,2
2017-04-24T16:10:03.442Z,2
2017-04-24T16:15:02.997Z,3
2017-04-24T16:20:03.512Z,4
2017-04-24T16:25:03.178Z,6
2017-04-24T16:30:02.918Z,3
2017-04-24T16:35:02.684Z,5
2017-04-24T16:40:03.217Z,5
2017-04-24T16:45:03.286Z,3
2017-04-24T16:50:02.585Z,3
2017-04-24T16:55:03.344Z,3
2017-04-24T17:00:03.244Z,2
2017-04-24T17:05:03.431Z,3
2017-04-24T17:10:02.645Z,3
2017-04-24T17:15:02.750Z,2
2017-04-24T17:20:02.664Z,3
2017-04-24T17:25:02.666Z,3
2017-04-24T17:30:03.618Z,4
2017-04-24T17:35:03.253Z,2
2017-04-24T17:40:02.972Z,4
2017-04-24T17:45:02.604Z,6
2017-04-24T17:50:03.450Z,3
2017-04-24T17:55:03.145Z,5
2017-04-24T18:00:02.990Z,4
2017-04-24T18:05:02.710Z,3
2017-04-24T18:10:03.572Z,3
2017-04-24T18:15:03.195Z,1
2017-04-24T18:20:03.012Z,2
2017-04-24T18:25:03.033Z,1
2017-04-24T18:30:03.181Z,1
2017-04-24T18:35:03.158Z,2
2017-04-24T18:40:03.166Z,1
2017-04-24T18:45:02.929Z,2
2017-04-24T18:50:03.021Z,3
2017-04-24T18:55:03.378Z,3
2017-04-24T19:00:02.827Z,3
2017-04-24T19:05:02.792Z,5
2017-04-24T19:10:02.916Z,2
2017-04-24T19:15:02.738Z,3
2017-04-24T19:20:02.862Z,3
2017-04-24T19:25:02.979Z,3
2017-04-24T19:30:02.953Z,3
2017-04-24T19:35:02.841Z,2
2017-04-24T19:40:02.907Z,2
2017-04-24T19:45:02.877Z,6
2017-04-24T19:50:03.154Z,7
2017-04-24T19:55:03.530Z,6
2017-04-24T20:00:02.701Z,4
2017-04-24T20:05:03.520Z,2
2017-04-24T20:10:03.186Z,5
2017-04-24T20:15:02.982Z,3
2017-04-24T20:20:02.936Z,2
2017-04-24T20:25:02.905Z,1
2017-04-24T20:30:03.505Z,2
2017-04-24T20:35:03.493Z,3
2017-04-24T20:40:03.070Z,1
2017-04-24T20:45:03.196Z,2
2017-04-24T20:50:03.118Z,1
2017-04-24T20:55:03.455Z,3
2017-04-24T21:00:03.605Z,2
2017-04-24T21:05:03.229Z,3
2017-04-24T21:10:02.642Z,2
2017-04-24T21:15:02.579Z,3
2017-04-24T21:20:02.601Z,3
2017-04-24T21:25:03.311Z,1
2017-04-24T21:30:03.305Z,2
2017-04-24T21:35:02.967Z,0
2017-04-24T21:40:02.812Z,0
2017-04-24T21:45:03.600Z,1
2017-04-24T21:50:03.469Z,0
2017-04-24T21:55:03.097Z,0
2017-04-24T22:00:03.015Z,1
2017-04-24T22:05:02.642Z,0
2017-04-24T22:10:03.324Z,3
2017-04-24T22:15:05.970Z,8
2017-04-24T22:20:03.540Z,3
2017-04-24T22:25:03.164Z,3
2017-04-24T22:30:02.934Z,4
2017-04-24T22:35:03.564Z,1
2017-04-24T22:40:03.509Z,5
2017-04-24T22:45:03.146Z,2
2017-04-24T22:50:02.838Z,6
2017-04-24T22:55:03.629Z,4
2017-04-24T23:00:03.440Z,2
2017-04-24T23:05:03.607Z,5
2017-04-24T23:10:03.637Z,4
2017-04-24T23:15:03.208Z,2
2017-04-24T23:20:02.852Z,2
2017-04-24T23:25:03.546Z,3
2017-04-24T23:30:03.157Z,0
2017-04-24T23:35:02.885Z,3
2017-04-24T23:40:02.573Z,0
2017-04-24T23:45:03.212Z,3
2017-04-24T23:50:02.846Z,1
2017-04-24T23:55:03.505Z,1
